createdAt,value
2018-07-15T00:01:26.745Z,15.60
2018-07-15T00:03:54.345Z,15.60
2018-07-15T00:06:21.924Z,15.60
2018-07-15T00:08:49.454Z,15.60
2018-07-15T00:11:17.000Z,15.60
2018-07-15T00:13:44.531Z,15.50
2018-07-15T00:16:12.083Z,15.50
2018-07-15T00:18:39.640Z,15.40
2018-07-15T00:21:07.382Z,15.40
2018-07-15T00:23:35.026Z,15.40
2018-07-15T00:26:02.598Z,15.40
2018-07-15T00:28:30.153Z,15.40
2018-07-15T00:30:57.716Z,15.30
2018-07-15T00:33:25.253Z,15.30
2018-07-15T00:35:52.785Z,15.30
2018-07-15T00:38:20.314Z,15.20
2018-07-15T00:40:47.873Z,15.20
2018-07-15T00:43:15.413Z,15.20
2018-07-15T00:45:43.000Z,15.20
2018-07-15T00:48:10.549Z,15.20
2018-07-15T00:50:38.134Z,15.10
2018-07-15T00:53:05.728Z,15.10
2018-07-15T00:55:33.271Z,15.10
2018-07-15T00:58:00.838Z,15.10
2018-07-15T01:00:33.921Z,15.10
2018-07-15T01:03:01.746Z,15.10
2018-07-15T01:05:29.253Z,15.10
2018-07-15T01:07:56.856Z,15.10
2018-07-15T01:10:24.407Z,15.00
2018-07-15T01:12:51.965Z,15.00
2018-07-15T01:15:19.525Z,15.00
2018-07-15T01:17:47.053Z,15.00
2018-07-15T01:20:14.752Z,15.00
2018-07-15T01:22:42.278Z,15.00
2018-07-15T01:25:09.817Z,15.00
2018-07-15T01:27:37.436Z,15.00
2018-07-15T01:30:04.995Z,14.90
2018-07-15T01:32:32.763Z,14.90
2018-07-15T01:35:00.303Z,14.90
2018-07-15T01:37:27.865Z,14.90
2018-07-15T01:39:55.460Z,15.00
2018-07-15T01:42:23.009Z,15.00
2018-07-15T01:44:50.554Z,14.90
2018-07-15T01:47:18.078Z,14.90
2018-07-15T01:49:45.589Z,14.90
2018-07-15T01:52:13.154Z,15.00
2018-07-15T01:54:40.685Z,15.00
2018-07-15T01:57:08.245Z,15.00
2018-07-15T01:59:35.820Z,15.00
2018-07-15T02:02:03.406Z,15.00
2018-07-15T02:04:30.930Z,15.00
2018-07-15T02:06:58.491Z,15.10
2018-07-15T02:09:26.036Z,15.10
2018-07-15T02:11:53.653Z,15.10
2018-07-15T02:14:21.253Z,15.10
2018-07-15T02:16:48.813Z,15.10
2018-07-15T02:19:16.331Z,15.00
2018-07-15T02:24:11.387Z,14.90
2018-07-15T02:29:06.559Z,14.80
2018-07-15T02:31:35.047Z,14.80
2018-07-15T02:34:02.692Z,14.70
2018-07-15T02:38:57.749Z,14.70
2018-07-15T02:41:25.304Z,14.70
2018-07-15T02:43:52.842Z,14.70
2018-07-15T02:46:20.376Z,14.70
2018-07-15T02:48:47.934Z,14.70
2018-07-15T02:51:15.482Z,14.60
2018-07-15T02:53:43.042Z,14.60
2018-07-15T02:56:10.573Z,14.60
2018-07-15T02:58:38.149Z,14.60
2018-07-15T03:01:05.708Z,14.60
2018-07-15T03:03:33.212Z,14.60
2018-07-15T03:06:00.738Z,14.60
2018-07-15T03:08:28.311Z,14.50
2018-07-15T03:10:55.820Z,14.60
2018-07-15T03:13:23.354Z,14.60
2018-07-15T03:15:50.900Z,14.60
2018-07-15T03:18:18.456Z,14.60
2018-07-15T03:20:46.020Z,14.60
2018-07-15T03:23:13.994Z,14.60
2018-07-15T03:25:41.651Z,14.70
2018-07-15T03:28:09.315Z,14.70
2018-07-15T03:30:36.933Z,14.80
2018-07-15T03:33:04.526Z,14.80
2018-07-15T03:35:32.067Z,14.70
2018-07-15T03:37:59.597Z,14.70
2018-07-15T03:40:27.130Z,14.70
2018-07-15T03:42:54.682Z,14.70
2018-07-15T03:45:22.241Z,14.70
2018-07-15T03:47:49.785Z,14.70
2018-07-15T03:50:17.311Z,14.70
2018-07-15T03:52:44.873Z,14.80
2018-07-15T03:55:12.410Z,14.80
2018-07-15T03:57:40.281Z,14.90
2018-07-15T04:00:07.957Z,14.90
2018-07-15T04:02:35.535Z,15.00
2018-07-15T04:05:03.169Z,15.00
2018-07-15T04:07:30.681Z,15.00
2018-07-15T04:09:58.518Z,15.10
2018-07-15T04:12:26.115Z,15.10
2018-07-15T04:14:53.649Z,15.20
2018-07-15T04:17:21.248Z,15.20
2018-07-15T04:19:48.799Z,15.20
2018-07-15T04:22:16.332Z,15.30
2018-07-15T04:24:43.891Z,15.30
2018-07-15T04:27:11.421Z,15.30
2018-07-15T04:29:38.978Z,15.40
2018-07-15T04:32:06.537Z,15.40
2018-07-15T04:34:34.087Z,15.40
2018-07-15T04:37:01.645Z,15.50
2018-07-15T04:39:29.220Z,15.60
2018-07-15T04:41:56.765Z,15.60
2018-07-15T04:44:24.362Z,15.70
2018-07-15T04:46:51.926Z,15.80
2018-07-15T04:49:19.454Z,15.90
2018-07-15T04:51:47.018Z,16.00
2018-07-15T04:54:14.618Z,16.10
2018-07-15T04:56:42.176Z,16.20
2018-07-15T04:59:09.750Z,16.20
2018-07-15T05:01:40.966Z,16.30
2018-07-15T05:04:08.564Z,16.40
2018-07-15T05:06:36.088Z,16.60
2018-07-15T05:09:04.654Z,16.80
2018-07-15T05:11:32.270Z,16.90
2018-07-15T05:13:59.812Z,17.00
2018-07-15T05:16:27.386Z,17.00
2018-07-15T05:18:54.889Z,17.10
2018-07-15T05:21:22.432Z,17.10
2018-07-15T05:23:49.958Z,17.10
2018-07-15T05:26:17.558Z,17.10
2018-07-15T05:28:45.082Z,17.10
2018-07-15T05:31:12.628Z,17.20
2018-07-15T05:33:40.158Z,17.30
2018-07-15T05:36:07.770Z,17.30
2018-07-15T05:38:35.291Z,17.40
2018-07-15T05:41:02.840Z,17.50
2018-07-15T05:43:30.370Z,17.60
2018-07-15T05:45:57.890Z,17.70
2018-07-15T05:48:25.499Z,17.80
2018-07-15T05:50:53.237Z,17.90
2018-07-15T05:53:20.845Z,18.10
2018-07-15T05:55:48.414Z,18.20
2018-07-15T05:58:15.956Z,18.40
2018-07-15T06:00:43.556Z,18.50
2018-07-15T06:03:11.071Z,18.70
2018-07-15T06:05:38.639Z,18.80
2018-07-15T06:08:06.175Z,18.90
2018-07-15T06:10:33.727Z,19.00
2018-07-15T06:13:01.285Z,19.00
2018-07-15T06:15:28.840Z,19.10
2018-07-15T06:17:56.397Z,19.00
2018-07-15T06:20:23.945Z,19.00
2018-07-15T06:22:51.881Z,19.00
2018-07-15T06:25:19.350Z,18.90
2018-07-15T06:27:46.907Z,18.90
2018-07-15T06:30:14.439Z,19.00
2018-07-15T06:32:42.004Z,19.00
2018-07-15T06:35:09.566Z,19.10
2018-07-15T06:37:37.121Z,19.10
2018-07-15T06:40:04.862Z,19.20
2018-07-15T06:42:32.437Z,19.20
2018-07-15T06:45:00.002Z,19.30
2018-07-15T06:47:27.550Z,19.40
2018-07-15T06:49:55.122Z,19.40
2018-07-15T06:52:22.744Z,19.50
2018-07-15T06:54:50.304Z,19.60
2018-07-15T06:57:17.853Z,19.70
2018-07-15T06:59:45.422Z,19.70
2018-07-15T07:02:12.972Z,19.80
2018-07-15T07:04:40.706Z,19.90
2018-07-15T07:07:08.270Z,20.00
2018-07-15T07:09:35.808Z,20.00
2018-07-15T07:12:03.423Z,20.10
2018-07-15T07:14:30.971Z,20.20
2018-07-15T07:16:58.537Z,20.30
2018-07-15T07:19:26.099Z,20.30
2018-07-15T07:21:53.916Z,20.40
2018-07-15T07:24:21.502Z,20.60
2018-07-15T07:26:49.054Z,20.70
2018-07-15T07:29:16.682Z,20.80
2018-07-15T07:31:44.260Z,20.80
2018-07-15T07:34:11.805Z,20.90
2018-07-15T07:36:39.374Z,21.10
2018-07-15T07:39:07.026Z,21.20
2018-07-15T07:41:34.772Z,21.30
2018-07-15T07:44:02.384Z,21.30
2018-07-15T07:46:29.916Z,21.40
2018-07-15T07:48:57.476Z,21.50
2018-07-15T07:51:25.086Z,21.50
2018-07-15T07:53:52.666Z,21.50
2018-07-15T07:56:20.250Z,21.50
2018-07-15T07:58:47.897Z,21.60
2018-07-15T08:01:15.500Z,21.60
2018-07-15T08:03:43.036Z,21.70
2018-07-15T08:06:10.600Z,21.80
2018-07-15T08:08:38.146Z,21.90
2018-07-15T08:11:05.774Z,22.00
2018-07-15T08:13:33.412Z,22.10
2018-07-15T08:16:00.969Z,22.20
2018-07-15T08:18:28.506Z,22.30
2018-07-15T08:20:56.095Z,22.30
2018-07-15T08:23:23.611Z,22.40
2018-07-15T08:25:51.273Z,22.40
2018-07-15T08:28:18.912Z,22.60
2018-07-15T08:30:57.696Z,22.70
2018-07-15T08:33:25.246Z,22.90
2018-07-15T08:35:52.813Z,23.00
2018-07-15T08:38:20.378Z,23.10
2018-07-15T08:40:48.011Z,23.20
2018-07-15T08:43:15.531Z,23.30
2018-07-15T08:45:43.063Z,23.50
2018-07-15T08:48:10.653Z,23.50
2018-07-15T08:50:38.233Z,23.50
2018-07-15T08:53:05.817Z,23.60
2018-07-15T08:55:33.367Z,23.70
2018-07-15T08:58:00.935Z,23.80
2018-07-15T09:00:28.495Z,23.80
2018-07-15T09:02:56.128Z,23.90
2018-07-15T09:05:23.680Z,24.00
2018-07-15T09:07:51.749Z,23.90
2018-07-15T09:10:19.479Z,23.90
2018-07-15T09:12:47.234Z,24.10
2018-07-15T09:15:14.794Z,24.20
2018-07-15T09:17:42.393Z,24.30
2018-07-15T09:20:09.973Z,24.40
2018-07-15T09:22:37.520Z,24.50
2018-07-15T09:25:05.120Z,24.70
2018-07-15T09:27:32.677Z,24.80
2018-07-15T09:30:00.300Z,24.90
2018-07-15T09:32:27.885Z,25.00
2018-07-15T09:34:55.443Z,25.00
2018-07-15T09:37:29.596Z,24.90
2018-07-15T09:39:57.138Z,24.80
2018-07-15T09:42:24.689Z,24.90
2018-07-15T09:44:52.240Z,25.20
2018-07-15T09:47:19.828Z,25.40
2018-07-15T09:52:14.872Z,25.80
2018-07-15T09:54:42.426Z,26.10
2018-07-15T09:57:10.067Z,26.30
2018-07-15T09:59:37.758Z,26.50
2018-07-15T10:02:05.504Z,26.60
2018-07-15T10:04:33.283Z,26.50
2018-07-15T10:07:00.966Z,26.30
2018-07-15T10:09:28.941Z,26.20
2018-07-15T10:11:56.927Z,26.30
2018-07-15T10:14:24.671Z,26.80
2018-07-15T10:16:52.223Z,27.20
2018-07-15T10:19:19.793Z,27.60
2018-07-15T10:21:47.365Z,27.60
2018-07-15T10:24:14.913Z,27.40
2018-07-15T10:26:42.691Z,27.00
2018-07-15T10:29:10.166Z,26.60
2018-07-15T10:31:37.724Z,26.30
2018-07-15T10:34:05.308Z,26.10
2018-07-15T10:36:32.880Z,25.90
2018-07-15T10:39:00.444Z,25.70
2018-07-15T10:41:28.379Z,25.60
2018-07-15T10:43:55.919Z,25.60
2018-07-15T10:46:23.568Z,25.60
2018-07-15T10:48:51.120Z,25.90
2018-07-15T10:51:18.718Z,26.70
2018-07-15T10:53:46.466Z,27.70
2018-07-15T10:56:14.010Z,28.70
2018-07-15T10:58:41.557Z,29.40
2018-07-15T11:01:09.917Z,29.60
2018-07-15T11:03:37.370Z,29.30
2018-07-15T11:06:05.034Z,28.80
2018-07-15T11:08:32.622Z,28.30
2018-07-15T11:11:00.170Z,28.00
2018-07-15T11:13:27.832Z,28.00
2018-07-15T11:15:55.395Z,28.30
2018-07-15T11:18:23.330Z,29.00
2018-07-15T11:20:50.905Z,29.80
2018-07-15T11:23:18.509Z,30.70
2018-07-15T11:25:46.089Z,31.40
2018-07-15T11:28:13.587Z,32.10
2018-07-15T11:30:41.293Z,32.60
2018-07-15T11:33:09.472Z,33.00
2018-07-15T11:35:37.029Z,33.30
2018-07-15T11:38:04.575Z,33.40
2018-07-15T11:40:32.247Z,33.50
2018-07-15T11:42:59.825Z,33.50
2018-07-15T11:45:27.429Z,33.50
2018-07-15T11:47:54.976Z,33.70
2018-07-15T11:50:22.570Z,33.50
2018-07-15T11:52:50.154Z,33.30
2018-07-15T11:55:17.636Z,32.80
2018-07-15T11:57:46.910Z,32.60
2018-07-15T12:00:14.830Z,32.80
2018-07-15T12:02:42.561Z,33.20
2018-07-15T12:05:10.142Z,33.60
2018-07-15T12:07:37.811Z,34.30
2018-07-15T12:10:05.844Z,34.60
2018-07-15T12:12:33.442Z,35.00
2018-07-15T12:15:00.989Z,35.50
2018-07-15T12:17:28.560Z,35.90
2018-07-15T12:19:56.109Z,36.30
2018-07-15T12:22:23.683Z,36.60
2018-07-15T12:24:51.234Z,36.80
2018-07-15T12:27:18.832Z,36.80
2018-07-15T12:29:46.380Z,36.90
2018-07-15T12:34:41.531Z,35.60
2018-07-15T12:37:09.091Z,34.70
2018-07-15T12:42:04.185Z,33.20
2018-07-15T12:44:31.852Z,32.60
2018-07-15T12:46:59.412Z,32.40
2018-07-15T12:49:27.038Z,32.30
2018-07-15T12:51:54.715Z,31.90
2018-07-15T12:54:22.302Z,31.60
2018-07-15T12:59:17.366Z,31.40
2018-07-15T13:01:44.906Z,31.00
2018-07-15T13:04:12.505Z,30.60
2018-07-15T13:06:40.168Z,30.20
2018-07-15T13:09:07.754Z,29.90
2018-07-15T13:11:35.464Z,29.60
2018-07-15T13:14:03.048Z,29.30
2018-07-15T13:16:30.733Z,29.10
2018-07-15T13:18:58.287Z,28.90
2018-07-15T13:21:25.860Z,28.70
2018-07-15T13:23:53.436Z,28.70
2018-07-15T13:26:21.018Z,28.60
2018-07-15T13:28:48.518Z,28.60
2018-07-15T13:31:16.170Z,28.60
2018-07-15T13:33:43.761Z,28.70
2018-07-15T13:36:11.357Z,28.70
2018-07-15T13:38:38.914Z,29.20
2018-07-15T13:41:06.539Z,30.20
2018-07-15T13:43:34.122Z,30.90
2018-07-15T13:46:01.737Z,31.10
2018-07-15T13:48:29.350Z,30.90
2018-07-15T13:50:56.977Z,30.80
2018-07-15T13:53:24.500Z,31.00
2018-07-15T13:55:52.105Z,31.40
2018-07-15T13:58:19.680Z,31.70
2018-07-15T14:03:14.802Z,31.40
2018-07-15T14:05:42.358Z,30.80
2018-07-15T14:08:10.046Z,30.30
2018-07-15T14:10:37.679Z,29.80
2018-07-15T14:13:05.245Z,29.40
2018-07-15T14:15:32.808Z,29.10
2018-07-15T14:18:00.364Z,28.90
2018-07-15T14:20:27.953Z,28.70
2018-07-15T14:22:55.498Z,28.60
2018-07-15T14:25:23.111Z,28.40
2018-07-15T14:27:50.768Z,28.20
2018-07-15T14:30:18.302Z,28.00
2018-07-15T14:32:45.855Z,27.60
2018-07-15T14:35:13.415Z,27.40
2018-07-15T14:37:41.103Z,27.10
2018-07-15T14:40:08.676Z,27.00
2018-07-15T14:42:36.241Z,26.70
2018-07-15T14:45:04.056Z,26.50
2018-07-15T14:47:31.634Z,26.40
2018-07-15T14:49:59.200Z,26.20
2018-07-15T14:52:26.817Z,26.00
2018-07-15T14:54:54.369Z,25.70
2018-07-15T14:57:21.932Z,25.50
2018-07-15T14:59:49.457Z,25.30
2018-07-15T15:02:17.003Z,25.10
2018-07-15T15:04:44.628Z,24.90
2018-07-15T15:07:12.223Z,24.50
2018-07-15T15:12:07.309Z,23.60
2018-07-15T15:14:34.928Z,23.10
2018-07-15T15:17:02.530Z,22.70
2018-07-15T15:19:30.126Z,22.40
2018-07-15T15:21:57.756Z,22.20
2018-07-15T15:24:25.363Z,22.00
2018-07-15T15:26:52.940Z,21.70
2018-07-15T15:29:20.526Z,21.00
2018-07-15T15:31:48.157Z,20.40
2018-07-15T15:36:43.338Z,19.20
2018-07-15T15:39:10.884Z,18.80
2018-07-15T15:41:38.458Z,18.40
2018-07-15T15:46:33.602Z,17.90
2018-07-15T15:53:56.351Z,17.80
2018-07-15T15:56:23.930Z,17.70
2018-07-15T15:58:51.574Z,17.70
2018-07-15T16:01:19.172Z,17.70
2018-07-15T16:03:46.742Z,17.70
2018-07-15T16:06:14.361Z,17.70
2018-07-15T16:08:41.929Z,17.70
2018-07-15T16:11:09.525Z,17.60
2018-07-15T16:13:37.082Z,17.50
2018-07-15T16:16:04.720Z,17.40
2018-07-15T16:18:32.384Z,17.40
2018-07-15T16:20:59.924Z,17.40
2018-07-15T16:23:27.535Z,17.40
2018-07-15T16:25:55.102Z,17.40
2018-07-15T16:28:22.723Z,17.30
2018-07-15T16:30:50.312Z,17.30
2018-07-15T16:33:17.922Z,17.30
2018-07-15T16:35:45.499Z,17.30
2018-07-15T16:38:13.111Z,17.40
2018-07-15T16:40:40.777Z,17.40
2018-07-15T16:43:08.382Z,17.40
2018-07-15T16:45:35.983Z,17.40
2018-07-15T16:48:03.581Z,17.50
2018-07-15T16:50:31.150Z,17.50
2018-07-15T16:52:58.769Z,17.50
2018-07-15T16:55:26.392Z,17.60
2018-07-15T16:57:54.042Z,17.70
2018-07-15T17:00:21.630Z,17.80
2018-07-15T17:02:49.333Z,18.00
2018-07-15T17:05:17.002Z,18.30
2018-07-15T17:07:44.598Z,18.60
2018-07-15T17:10:12.240Z,18.90
2018-07-15T17:12:39.890Z,19.50
2018-07-15T17:15:07.548Z,20.20
2018-07-15T17:17:35.194Z,20.90
2018-07-15T17:22:30.349Z,21.90
2018-07-15T17:24:57.913Z,22.00
2018-07-15T17:27:25.512Z,22.20
2018-07-15T17:29:53.101Z,22.40
2018-07-15T17:32:20.818Z,22.50
2018-07-15T17:34:48.438Z,22.50
2018-07-15T17:37:16.101Z,22.30
2018-07-15T17:39:43.770Z,22.20
2018-07-15T17:42:11.488Z,22.00
2018-07-15T17:44:39.191Z,21.70
2018-07-15T17:47:06.874Z,21.40
2018-07-15T17:49:34.532Z,21.10
2018-07-15T17:52:02.877Z,20.90
2018-07-15T17:54:30.584Z,20.60
2018-07-15T17:56:58.337Z,20.20
2018-07-15T17:59:26.523Z,19.80
2018-07-15T18:01:54.220Z,19.30
2018-07-15T18:04:21.950Z,19.00
2018-07-15T18:06:50.140Z,18.90
2018-07-15T18:09:17.826Z,18.70
2018-07-15T18:11:45.479Z,18.60
2018-07-15T18:14:13.677Z,18.60
2018-07-15T18:16:41.361Z,18.40
2018-07-15T18:19:09.998Z,18.30
2018-07-15T18:21:37.703Z,18.20
2018-07-15T18:24:05.394Z,18.10
2018-07-15T18:33:55.807Z,17.80
2018-07-15T18:36:23.524Z,17.70
2018-07-15T18:38:51.292Z,17.70
2018-07-15T18:41:19.037Z,17.60
2018-07-15T18:43:46.813Z,17.50
2018-07-15T18:46:14.543Z,17.50
2018-07-15T18:48:42.237Z,17.50
2018-07-15T18:51:10.035Z,17.50
2018-07-15T18:53:37.831Z,17.50
2018-07-15T18:56:05.644Z,17.50
2018-07-15T18:58:34.476Z,17.40
2018-07-15T19:01:02.154Z,17.40
2018-07-15T19:03:29.875Z,17.30
2018-07-15T19:05:58.277Z,17.20
2018-07-15T19:08:26.676Z,17.20
2018-07-15T19:10:55.235Z,17.10
2018-07-15T19:13:22.974Z,17.10
2018-07-15T19:15:50.808Z,17.00
2018-07-15T19:18:19.134Z,16.90
2018-07-15T19:20:46.932Z,16.90
2018-07-15T19:23:14.664Z,16.80
2018-07-15T19:25:42.405Z,16.80
2018-07-15T19:28:10.099Z,16.70
2018-07-15T19:30:37.918Z,16.70
2018-07-15T19:33:05.916Z,16.70
2018-07-15T19:35:33.591Z,16.70
2018-07-15T19:38:01.421Z,16.60
2018-07-15T19:40:29.161Z,16.60
2018-07-15T19:42:56.890Z,16.60
2018-07-15T19:45:24.611Z,16.60
2018-07-15T19:47:52.324Z,16.50
2018-07-15T19:50:20.051Z,16.60
2018-07-15T19:52:48.032Z,16.60
2018-07-15T19:55:16.280Z,16.60
2018-07-15T19:57:44.194Z,16.50
2018-07-15T20:00:11.922Z,16.50
2018-07-15T20:02:39.689Z,16.60
2018-07-15T20:05:07.716Z,16.60
2018-07-15T20:07:35.462Z,16.60
2018-07-15T20:10:03.984Z,16.60
2018-07-15T20:12:31.689Z,16.60
2018-07-15T20:14:59.403Z,16.60
2018-07-15T20:17:27.173Z,16.70
2018-07-15T20:19:54.912Z,16.70
2018-07-15T20:22:22.623Z,16.70
2018-07-15T20:24:50.222Z,16.70
2018-07-15T20:27:17.888Z,16.70
2018-07-15T20:29:45.494Z,16.70
2018-07-15T20:32:13.157Z,16.70
2018-07-15T20:34:40.976Z,16.70
2018-07-15T20:37:08.624Z,16.70
2018-07-15T20:39:36.268Z,16.60
2018-07-15T20:42:03.955Z,16.60
2018-07-15T20:44:31.616Z,16.50
2018-07-15T20:46:59.243Z,16.50
2018-07-15T20:49:26.851Z,16.50
2018-07-15T20:51:55.109Z,16.40
2018-07-15T20:54:22.739Z,16.40
2018-07-15T20:56:50.366Z,16.40
2018-07-15T20:59:17.897Z,16.30
2018-07-15T21:01:45.437Z,16.30
2018-07-15T21:04:12.996Z,16.30
2018-07-15T21:06:40.585Z,16.30
2018-07-15T21:09:08.159Z,16.30
2018-07-15T21:11:35.714Z,16.30
2018-07-15T21:14:03.245Z,16.30
2018-07-15T21:16:30.779Z,16.30
2018-07-15T21:18:58.501Z,16.30
2018-07-15T21:21:26.104Z,16.30
2018-07-15T21:23:53.618Z,16.20
2018-07-15T21:26:21.132Z,16.10
2018-07-15T21:28:48.637Z,16.00
2018-07-15T21:31:16.187Z,16.00
2018-07-15T21:33:43.777Z,15.90
2018-07-15T21:36:11.331Z,15.90
2018-07-15T21:38:38.904Z,15.90
2018-07-15T21:41:06.461Z,15.90
2018-07-15T21:43:34.051Z,15.90
2018-07-15T21:46:01.606Z,15.80
2018-07-15T21:48:29.190Z,15.80
2018-07-15T21:50:56.771Z,15.80
2018-07-15T21:53:24.445Z,15.70
2018-07-15T21:55:52.071Z,15.70
2018-07-15T22:00:47.127Z,15.60
2018-07-15T22:03:14.724Z,15.60
2018-07-15T22:05:43.385Z,15.50
2018-07-15T22:08:22.207Z,15.50
2018-07-15T22:10:49.785Z,15.50
2018-07-15T22:13:17.386Z,15.50
2018-07-15T22:15:44.923Z,15.50
2018-07-15T22:18:12.473Z,15.50
2018-07-15T22:20:40.068Z,15.50
2018-07-15T22:23:08.257Z,15.60
2018-07-15T22:25:35.847Z,15.60
2018-07-15T22:28:03.537Z,15.60
2018-07-15T22:30:31.111Z,15.50
2018-07-15T22:32:58.698Z,15.50
2018-07-15T22:35:26.291Z,15.40
2018-07-15T22:37:53.879Z,15.40
2018-07-15T22:40:21.510Z,15.40
2018-07-15T22:42:49.111Z,15.40
2018-07-15T22:45:16.637Z,15.40
2018-07-15T22:47:44.233Z,15.40
2018-07-15T22:50:11.759Z,15.40
2018-07-15T22:52:39.364Z,15.40
2018-07-15T22:55:06.952Z,15.40
2018-07-15T22:57:34.502Z,15.40
2018-07-15T23:00:02.067Z,15.40
2018-07-15T23:02:29.655Z,15.30
2018-07-15T23:05:36.443Z,15.30
2018-07-15T23:08:04.657Z,15.20
2018-07-15T23:10:32.212Z,15.20
2018-07-15T23:12:59.986Z,15.20
2018-07-15T23:15:27.613Z,15.10
2018-07-15T23:17:55.205Z,15.10
2018-07-15T23:20:22.757Z,15.10
2018-07-15T23:22:50.476Z,15.10
2018-07-15T23:25:18.129Z,15.10
2018-07-15T23:27:45.672Z,15.10
2018-07-15T23:30:13.258Z,15.20
2018-07-15T23:32:40.815Z,15.20
2018-07-15T23:35:08.386Z,15.10
2018-07-15T23:37:36.035Z,15.10
2018-07-15T23:40:03.643Z,15.10
2018-07-15T23:42:31.166Z,15.10
2018-07-15T23:44:58.695Z,15.10
2018-07-15T23:47:26.240Z,15.10
2018-07-15T23:49:53.791Z,15.10
2018-07-15T23:52:21.360Z,15.10
2018-07-15T23:54:48.894Z,15.10
2018-07-15T23:57:16.404Z,15.00
2018-07-15T23:59:43.957Z,15.00
